createdAt,value
2022-09-26T00:01:36.085Z,4.75
2022-09-26T00:03:38.294Z,4.68
2022-09-26T00:05:39.989Z,4.82
2022-09-26T00:07:41.310Z,4.65
2022-09-26T00:09:42.680Z,5.18
2022-09-26T00:11:44.689Z,5.32
2022-09-26T00:13:46.152Z,4.70
2022-09-26T00:15:47.464Z,4.30
2022-09-26T00:17:48.830Z,4.90
2022-09-26T00:19:50.227Z,4.50
2022-09-26T00:21:51.608Z,4.32
2022-09-26T00:23:53.781Z,4.05
2022-09-26T00:25:56.796Z,3.60
2022-09-26T00:27:58.302Z,5.25
2022-09-26T00:29:59.597Z,5.15
2022-09-26T00:32:01.024Z,5.00
2022-09-26T00:34:02.383Z,5.30
2022-09-26T00:36:04.172Z,5.78
2022-09-26T00:38:05.762Z,5.70
2022-09-26T00:40:07.460Z,6.28
2022-09-26T00:42:15.479Z,5.82
2022-09-26T00:44:34.473Z,5.82
2022-09-26T00:46:48.168Z,5.93
2022-09-26T00:48:53.704Z,6.10
2022-09-26T00:50:55.103Z,5.93
2022-09-26T00:53:01.096Z,5.75
2022-09-26T00:55:03.877Z,5.88
2022-09-26T00:57:08.907Z,6.20
2022-09-26T00:59:13.561Z,6.25
2022-09-26T01:01:15.917Z,4.75
2022-09-26T01:03:18.843Z,5.00
2022-09-26T01:05:22.711Z,4.97
2022-09-26T01:07:25.093Z,4.78
2022-09-26T01:09:27.331Z,4.88
2022-09-26T01:11:29.730Z,5.00
2022-09-26T01:13:34.348Z,5.53
2022-09-26T01:15:36.682Z,4.85
2022-09-26T01:17:39.035Z,5.68
2022-09-26T01:19:40.293Z,5.32
2022-09-26T01:22:09.545Z,5.80
2022-09-26T01:24:14.098Z,5.40
2022-09-26T01:26:15.426Z,5.47
2022-09-26T01:28:19.531Z,6.30
2022-09-26T01:30:27.812Z,5.22
2022-09-26T01:32:47.899Z,6.25
2022-09-26T01:35:01.252Z,6.13
2022-09-26T01:37:25.515Z,7.22
2022-09-26T01:39:36.525Z,6.97
2022-09-26T01:41:44.084Z,6.82
2022-09-26T01:44:04.387Z,6.60
2022-09-26T01:46:11.360Z,6.60
2022-09-26T01:48:19.247Z,5.95
2022-09-26T01:50:20.624Z,6.55
2022-09-26T01:52:40.363Z,5.93
2022-09-26T01:54:44.330Z,6.63
2022-09-26T01:56:46.613Z,6.97
2022-09-26T01:58:57.044Z,5.88
2022-09-26T02:01:00.905Z,6.68
2022-09-26T02:03:03.001Z,6.05
2022-09-26T02:05:12.042Z,6.82
2022-09-26T02:07:16.723Z,6.50
2022-09-26T02:09:29.461Z,6.32
2022-09-26T02:11:30.946Z,5.88
2022-09-26T02:13:37.053Z,6.10
2022-09-26T02:15:40.366Z,6.32
2022-09-26T02:17:43.771Z,5.63
2022-09-26T02:19:51.401Z,6.65
2022-09-26T02:21:53.063Z,6.18
2022-09-26T02:23:54.819Z,5.57
2022-09-26T02:25:56.563Z,5.32
2022-09-26T02:27:57.878Z,6.25
2022-09-26T02:29:59.407Z,6.47
2022-09-26T02:32:03.530Z,6.22
2022-09-26T02:34:05.090Z,6.43
2022-09-26T02:36:10.156Z,6.65
2022-09-26T02:38:11.469Z,6.65
2022-09-26T02:40:12.891Z,6.78
2022-09-26T02:42:21.111Z,6.40
2022-09-26T02:44:22.375Z,6.80
2022-09-26T02:46:26.449Z,6.40
2022-09-26T02:48:40.416Z,6.65
2022-09-26T02:51:00.760Z,6.97
2022-09-26T02:53:11.321Z,6.93
2022-09-26T02:55:24.818Z,6.57
2022-09-26T02:57:26.252Z,7.10
2022-09-26T02:59:42.921Z,6.82
2022-09-26T03:01:50.609Z,6.85
2022-09-26T03:03:53.844Z,6.40
2022-09-26T03:05:56.738Z,7.30
2022-09-26T03:08:00.949Z,6.85
2022-09-26T03:10:03.751Z,6.40
2022-09-26T03:12:06.185Z,6.68
2022-09-26T03:14:08.412Z,5.80
2022-09-26T03:16:10.047Z,5.88
2022-09-26T03:18:16.668Z,6.38
2022-09-26T03:20:21.676Z,6.28
2022-09-26T03:22:23.052Z,6.22
2022-09-26T03:24:24.707Z,6.35
2022-09-26T03:26:27.359Z,5.90
2022-09-26T03:28:30.808Z,5.80
2022-09-26T03:30:34.565Z,5.90
2022-09-26T03:32:37.172Z,5.65
2022-09-26T03:34:39.845Z,5.90
2022-09-26T03:36:41.280Z,6.22
2022-09-26T03:38:42.562Z,5.72
2022-09-26T03:40:44.391Z,5.53
2022-09-26T03:42:46.734Z,4.82
2022-09-26T03:44:48.103Z,5.55
2022-09-26T03:46:49.439Z,6.22
2022-09-26T03:48:50.985Z,5.18
2022-09-26T03:50:52.265Z,5.43
2022-09-26T03:52:53.612Z,6.22
2022-09-26T03:54:54.894Z,5.97
2022-09-26T03:56:56.443Z,5.97
2022-09-26T03:58:57.729Z,5.75
2022-09-26T04:01:12.254Z,6.18
2022-09-26T04:03:13.600Z,6.05
2022-09-26T04:05:14.930Z,5.90
2022-09-26T04:07:16.365Z,6.20
2022-09-26T04:09:17.927Z,6.32
2022-09-26T04:11:20.853Z,6.63
2022-09-26T04:13:49.424Z,6.78
2022-09-26T04:15:43.616Z,6.35
2022-09-26T04:17:44.915Z,7.13
2022-09-26T04:19:46.558Z,6.95
2022-09-26T04:21:48.480Z,6.40
2022-09-26T04:23:50.309Z,5.80
2022-09-26T04:25:52.004Z,6.40
2022-09-26T04:27:53.331Z,6.45
2022-09-26T04:29:56.996Z,6.72
2022-09-26T04:31:58.386Z,6.15
2022-09-26T04:34:00.245Z,6.22
2022-09-26T04:36:02.197Z,6.40
2022-09-26T04:38:04.684Z,6.80
2022-09-26T04:40:06.233Z,6.55
2022-09-26T04:42:07.511Z,6.70
2022-09-26T04:44:12.669Z,6.53
2022-09-26T04:46:20.060Z,6.65
2022-09-26T04:48:23.603Z,6.22
2022-09-26T04:50:24.947Z,6.53
2022-09-26T04:52:26.549Z,5.75
2022-09-26T04:54:27.817Z,6.38
2022-09-26T04:56:29.683Z,6.13
2022-09-26T04:58:31.053Z,6.45
2022-09-26T05:00:32.463Z,6.80
2022-09-26T05:02:33.887Z,5.93
2022-09-26T05:04:35.936Z,6.10
2022-09-26T05:06:37.230Z,6.68
2022-09-26T05:08:40.617Z,7.03
2022-09-26T05:10:42.426Z,6.07
2022-09-26T05:12:43.739Z,6.82
2022-09-26T05:14:45.122Z,7.05
2022-09-26T05:16:47.393Z,7.00
2022-09-26T05:18:49.320Z,7.03
2022-09-26T05:20:50.910Z,6.90
2022-09-26T05:22:52.242Z,8.30
2022-09-26T05:25:12.048Z,6.15
2022-09-26T05:27:14.109Z,6.82
2022-09-26T05:29:16.127Z,6.60
2022-09-26T05:31:18.767Z,6.50
2022-09-26T05:33:21.145Z,6.68
2022-09-26T05:35:22.465Z,7.07
2022-09-26T05:37:23.789Z,6.38
2022-09-26T05:39:43.868Z,7.00
2022-09-26T05:41:45.137Z,7.05
2022-09-26T05:43:47.513Z,6.93
2022-09-26T05:45:49.244Z,6.60
2022-09-26T05:47:50.700Z,6.90
2022-09-26T05:49:52.054Z,7.00
2022-09-26T05:51:53.680Z,6.40
2022-09-26T05:53:55.016Z,7.15
2022-09-26T05:55:56.280Z,7.13
2022-09-26T05:58:00.880Z,6.55
2022-09-26T06:00:02.438Z,5.80
2022-09-26T06:02:04.725Z,6.10
2022-09-26T06:04:06.389Z,5.13
2022-09-26T06:06:08.806Z,5.90
2022-09-26T06:08:10.763Z,5.15
2022-09-26T06:10:12.099Z,5.90
2022-09-26T06:12:13.423Z,5.38
2022-09-26T06:14:14.699Z,5.85
2022-09-26T06:16:18.533Z,5.05
2022-09-26T06:18:19.940Z,6.28
2022-09-26T06:20:22.140Z,5.57
2022-09-26T06:22:24.475Z,5.85
2022-09-26T06:24:25.763Z,5.50
2022-09-26T06:26:29.072Z,5.40
2022-09-26T06:28:30.917Z,4.95
2022-09-26T06:30:33.105Z,4.53
2022-09-26T06:32:36.287Z,4.38
2022-09-26T06:34:37.650Z,5.47
2022-09-26T06:36:39.747Z,4.47
2022-09-26T06:38:41.179Z,5.15
2022-09-26T06:40:42.561Z,5.07
2022-09-26T06:42:45.307Z,5.10
2022-09-26T06:44:46.618Z,5.43
2022-09-26T06:46:48.151Z,4.95
2022-09-26T06:48:49.623Z,5.55
2022-09-26T06:50:52.124Z,5.00
2022-09-26T06:52:53.485Z,5.75
2022-09-26T06:54:55.325Z,6.55
2022-09-26T06:56:56.737Z,6.57
2022-09-26T06:58:58.100Z,7.15
2022-09-26T07:00:59.749Z,5.80
2022-09-26T07:03:01.660Z,6.75
2022-09-26T07:05:04.186Z,6.57
2022-09-26T07:07:05.602Z,5.78
2022-09-26T07:09:11.857Z,6.68
2022-09-26T07:11:38.110Z,6.57
2022-09-26T07:13:36.300Z,6.45
2022-09-26T07:15:37.727Z,5.50
2022-09-26T07:17:39.493Z,5.28
2022-09-26T07:19:41.043Z,5.10
2022-09-26T07:21:42.431Z,4.80
2022-09-26T07:23:43.824Z,6.30
2022-09-26T07:25:45.884Z,5.45
2022-09-26T07:27:50.833Z,5.30
2022-09-26T07:29:52.731Z,5.15
2022-09-26T07:31:54.204Z,4.32
2022-09-26T07:33:55.619Z,5.70
2022-09-26T07:36:01.901Z,4.63
2022-09-26T07:38:05.802Z,4.40
2022-09-26T07:40:07.332Z,5.30
2022-09-26T07:42:09.611Z,5.10
2022-09-26T07:46:50.863Z,5.30
2022-09-26T07:49:10.960Z,5.55
2022-09-26T07:51:12.314Z,5.93
2022-09-26T07:53:13.602Z,5.72
2022-09-26T07:55:17.173Z,5.50
2022-09-26T07:57:20.362Z,5.47
2022-09-26T07:59:22.854Z,4.57
2022-09-26T08:01:26.035Z,4.10
2022-09-26T08:03:28.567Z,4.95
2022-09-26T08:05:31.715Z,4.88
2022-09-26T08:07:34.888Z,4.43
2022-09-26T08:09:36.457Z,4.50
2022-09-26T08:11:38.422Z,4.25
2022-09-26T08:13:39.719Z,5.70
2022-09-26T08:15:41.120Z,4.13
2022-09-26T08:17:43.294Z,4.63
2022-09-26T08:19:44.675Z,4.38
2022-09-26T08:21:46.016Z,4.97
2022-09-26T08:23:47.618Z,4.50
2022-09-26T08:25:48.936Z,4.40
2022-09-26T08:27:50.477Z,5.40
2022-09-26T08:29:52.165Z,4.57
2022-09-26T08:31:54.867Z,5.38
2022-09-26T08:33:56.347Z,4.32
2022-09-26T08:36:02.343Z,5.35
2022-09-26T08:38:04.332Z,4.95
2022-09-26T08:40:06.872Z,5.30
2022-09-26T08:42:29.589Z,4.75
2022-09-26T08:44:36.638Z,5.90
2022-09-26T08:46:58.084Z,5.65
2022-09-26T08:49:05.008Z,3.95
2022-09-26T08:51:29.035Z,4.30
2022-09-26T08:53:40.626Z,4.20
2022-09-26T08:55:43.203Z,3.90
2022-09-26T08:57:47.672Z,4.55
2022-09-26T08:59:49.069Z,4.13
2022-09-26T09:01:52.779Z,4.10
2022-09-26T09:04:12.850Z,3.95
2022-09-26T09:06:14.890Z,3.87
2022-09-26T09:08:22.070Z,3.88
2022-09-26T09:10:32.625Z,4.68
2022-09-26T09:12:33.893Z,4.18
2022-09-26T09:15:07.656Z,4.35
2022-09-26T09:17:13.653Z,4.25
2022-09-26T09:19:38.101Z,3.78
2022-09-26T09:21:45.383Z,4.32
2022-09-26T09:24:07.435Z,3.15
2022-09-26T09:28:53.504Z,3.97
2022-09-26T09:31:10.082Z,3.42
2022-09-26T09:33:14.409Z,3.95
2022-09-26T09:35:17.977Z,3.22
2022-09-26T09:37:21.366Z,3.60
2022-09-26T09:39:40.643Z,3.13
2022-09-26T09:41:45.641Z,3.90
2022-09-26T09:43:48.396Z,3.15
2022-09-26T09:45:52.482Z,3.38
2022-09-26T09:47:55.534Z,3.22
2022-09-26T09:49:59.003Z,2.88
2022-09-26T09:52:20.130Z,3.60
2022-09-26T09:54:21.514Z,3.15
2022-09-26T09:56:31.150Z,2.80
2022-09-26T09:58:52.388Z,2.00
2022-09-26T10:01:00.629Z,2.30
2022-09-26T10:03:11.248Z,1.92
2022-09-26T10:05:19.936Z,1.98
2022-09-26T10:07:21.297Z,2.00
2022-09-26T10:09:38.983Z,1.92
2022-09-26T10:11:42.328Z,1.95
2022-09-26T10:13:44.840Z,1.92
2022-09-26T10:15:50.377Z,1.70
2022-09-26T10:18:30.060Z,2.58
2022-09-26T10:20:41.211Z,2.20
2022-09-26T10:22:45.058Z,2.10
2022-09-26T10:24:47.660Z,1.80
2022-09-26T10:26:50.767Z,2.08
2022-09-26T10:28:55.588Z,1.98
2022-09-26T10:31:01.447Z,1.90
2022-09-26T10:33:04.051Z,2.13
2022-09-26T10:35:07.720Z,1.80
2022-09-26T10:37:20.006Z,1.50
2022-09-26T10:39:43.739Z,1.70
2022-09-26T10:41:46.320Z,1.48
2022-09-26T10:43:52.436Z,1.80
2022-09-26T10:45:55.861Z,1.77
2022-09-26T10:47:59.255Z,1.38
2022-09-26T10:50:03.487Z,1.42
2022-09-26T10:52:08.579Z,1.48
2022-09-26T10:54:16.325Z,1.55
2022-09-26T10:56:26.262Z,2.20
2022-09-26T10:58:29.874Z,1.60
2022-09-26T11:00:36.661Z,1.95
2022-09-26T11:02:46.526Z,1.95
2022-09-26T11:05:06.664Z,1.50
2022-09-26T11:07:09.543Z,1.00
2022-09-26T11:09:11.937Z,1.45
2022-09-26T11:11:15.931Z,1.27
2022-09-26T11:13:18.799Z,1.23
2022-09-26T11:15:20.206Z,1.42
2022-09-26T11:17:21.724Z,1.23
2022-09-26T11:19:45.823Z,1.55
2022-09-26T11:21:51.517Z,1.63
2022-09-26T11:24:04.743Z,1.40
2022-09-26T11:26:25.512Z,1.52
2022-09-26T11:28:31.010Z,1.30
2022-09-26T11:30:34.610Z,1.02
2022-09-26T11:32:43.180Z,1.13
2022-09-26T11:34:44.846Z,1.50
2022-09-26T11:36:47.068Z,1.27
2022-09-26T11:38:55.551Z,1.13
2022-09-26T11:40:59.836Z,1.30
2022-09-26T11:43:20.032Z,1.40
2022-09-26T11:45:40.915Z,1.40
2022-09-26T11:47:59.560Z,1.20
2022-09-26T11:50:20.344Z,1.33
2022-09-26T11:52:24.450Z,1.05
2022-09-26T11:54:46.169Z,1.10
2022-09-26T11:57:08.448Z,1.15
2022-09-26T11:59:25.030Z,1.00
2022-09-26T12:01:35.425Z,1.15
2022-09-26T12:03:40.001Z,1.40
2022-09-26T12:05:44.197Z,0.88
2022-09-26T12:07:58.890Z,0.82
2022-09-26T12:10:12.293Z,0.80
2022-09-26T12:12:16.916Z,1.33
2022-09-26T12:14:21.404Z,1.10
2022-09-26T12:16:25.349Z,1.02
2022-09-26T12:18:26.684Z,0.70
2022-09-26T12:20:32.341Z,0.82
2022-09-26T12:22:47.737Z,0.70
2022-09-26T12:25:05.885Z,0.80
2022-09-26T12:27:13.090Z,0.75
2022-09-26T12:29:24.877Z,0.85
2022-09-26T12:31:26.271Z,0.73
2022-09-26T12:33:49.028Z,0.70
2022-09-26T12:35:50.296Z,0.73
2022-09-26T12:38:07.334Z,0.70
2022-09-26T12:40:26.945Z,0.90
2022-09-26T12:42:31.612Z,0.70
2022-09-26T12:44:44.645Z,0.80
2022-09-26T12:46:55.092Z,0.90
2022-09-26T12:49:11.305Z,0.95
2022-09-26T12:51:22.145Z,0.70
2022-09-26T12:53:26.729Z,0.75
2022-09-26T12:55:40.732Z,0.70
2022-09-26T12:57:52.716Z,0.70
2022-09-26T12:59:56.809Z,0.80
2022-09-26T13:01:59.830Z,0.77
2022-09-26T13:04:16.975Z,0.80
2022-09-26T13:06:49.077Z,0.63
2022-09-26T13:09:20.773Z,0.70
2022-09-26T13:11:44.094Z,0.50
2022-09-26T13:14:12.267Z,0.75
2022-09-26T13:16:16.566Z,0.60
2022-09-26T13:18:25.860Z,0.73
2022-09-26T13:20:38.265Z,0.70
2022-09-26T13:22:42.963Z,0.90
2022-09-26T13:24:48.302Z,0.63
2022-09-26T13:26:53.327Z,1.05
2022-09-26T13:29:16.116Z,0.65
2022-09-26T13:31:21.620Z,0.90
2022-09-26T13:33:27.366Z,0.80
2022-09-26T13:35:31.656Z,0.82
2022-09-26T13:38:06.204Z,0.70
2022-09-26T13:40:21.509Z,1.10
2022-09-26T13:42:32.586Z,0.90
2022-09-26T13:44:55.709Z,0.82
2022-09-26T13:47:03.279Z,0.70
2022-09-26T13:49:16.007Z,0.68
2022-09-26T13:51:21.288Z,0.63
2022-09-26T13:53:34.594Z,1.00
2022-09-26T13:55:36.444Z,0.68
2022-09-26T13:57:39.609Z,0.63
2022-09-26T13:59:51.472Z,0.80
2022-09-26T14:02:11.455Z,0.75
2022-09-26T14:04:19.691Z,0.70
2022-09-26T14:06:27.324Z,1.00
2022-09-26T14:08:49.313Z,0.90
2022-09-26T14:10:53.726Z,0.90
2022-09-26T14:13:03.347Z,0.88
2022-09-26T14:15:17.012Z,1.17
2022-09-26T14:17:36.995Z,0.80
2022-09-26T14:19:42.928Z,0.80
2022-09-26T14:22:07.018Z,0.85
2022-09-26T14:24:20.329Z,0.77
2022-09-26T14:26:27.131Z,0.85
2022-09-26T14:28:35.336Z,0.70
2022-09-26T14:30:37.611Z,0.60
2022-09-26T14:32:39.888Z,0.70
2022-09-26T14:34:44.080Z,0.73
2022-09-26T14:36:46.306Z,0.90
2022-09-26T14:38:48.878Z,0.70
2022-09-26T14:40:57.917Z,0.80
2022-09-26T14:42:59.651Z,0.80
2022-09-26T14:45:03.722Z,0.80
2022-09-26T14:47:08.351Z,0.60
2022-09-26T14:49:17.756Z,0.60
2022-09-26T14:51:23.905Z,0.75
2022-09-26T14:53:35.038Z,0.75
2022-09-26T14:55:36.419Z,0.60
2022-09-26T14:57:37.798Z,0.80
2022-09-26T14:59:40.663Z,0.70
2022-09-26T15:01:45.407Z,0.70
2022-09-26T15:04:03.618Z,0.70
2022-09-26T15:06:08.706Z,1.05
2022-09-26T15:08:27.295Z,0.90
2022-09-26T15:10:41.912Z,0.73
2022-09-26T15:12:44.048Z,0.80
2022-09-26T15:14:49.892Z,1.00
2022-09-26T15:16:53.472Z,0.98
2022-09-26T15:18:55.787Z,0.70
2022-09-26T15:21:04.426Z,0.65
2022-09-26T15:23:23.749Z,0.70
2022-09-26T15:25:30.504Z,0.70
2022-09-26T15:27:33.042Z,0.90
2022-09-26T15:29:42.301Z,0.80
2022-09-26T15:31:44.460Z,0.70
2022-09-26T15:33:54.835Z,0.65
2022-09-26T15:35:56.332Z,0.70
2022-09-26T15:38:01.804Z,0.70
2022-09-26T15:40:16.043Z,0.68
2022-09-26T15:42:40.215Z,0.80
2022-09-26T15:44:46.073Z,0.85
2022-09-26T15:46:49.386Z,0.50
2022-09-26T15:48:51.616Z,0.60
2022-09-26T15:50:54.588Z,0.70
2022-09-26T15:53:00.261Z,0.50
2022-09-26T15:55:02.700Z,0.60
2022-09-26T15:57:07.957Z,0.50
2022-09-26T15:59:27.940Z,0.70
2022-09-26T16:01:30.963Z,0.82
2022-09-26T16:03:38.278Z,0.60
2022-09-26T16:05:39.669Z,0.70
2022-09-26T16:07:47.522Z,0.80
2022-09-26T16:09:51.438Z,0.65
2022-09-26T16:11:54.510Z,0.88
2022-09-26T16:13:56.580Z,0.75
2022-09-26T16:16:02.971Z,0.80
2022-09-26T16:18:04.512Z,0.70
2022-09-26T16:20:11.679Z,0.80
2022-09-26T16:22:29.343Z,0.73
2022-09-26T16:24:34.350Z,1.00
2022-09-26T16:26:39.185Z,0.90
2022-09-26T16:28:42.445Z,0.90
2022-09-26T16:31:04.100Z,1.00
2022-09-26T16:33:08.199Z,0.85
2022-09-26T16:35:19.687Z,0.80
2022-09-26T16:37:23.039Z,0.68
2022-09-26T16:39:24.384Z,0.88
2022-09-26T16:41:59.611Z,0.80
2022-09-26T16:43:57.976Z,0.85
2022-09-26T16:46:00.867Z,1.02
2022-09-26T16:48:02.232Z,0.80
2022-09-26T16:50:26.736Z,0.85
2022-09-26T16:52:34.300Z,0.95
2022-09-26T16:54:35.627Z,1.08
2022-09-26T16:56:41.357Z,1.08
2022-09-26T16:58:46.639Z,0.90
2022-09-26T17:01:06.420Z,0.90
2022-09-26T17:03:21.119Z,1.50
2022-09-26T17:05:22.574Z,1.08
2022-09-26T17:07:24.905Z,1.00
2022-09-26T17:09:32.884Z,0.70
2022-09-26T17:11:34.255Z,0.70
2022-09-26T17:13:35.776Z,0.77
2022-09-26T17:15:37.571Z,1.00
2022-09-26T17:17:38.968Z,0.88
2022-09-26T17:19:41.110Z,0.93
2022-09-26T17:21:42.601Z,0.80
2022-09-26T17:23:44.000Z,0.80
2022-09-26T17:25:52.949Z,0.90
2022-09-26T17:27:59.950Z,1.20
2022-09-26T17:30:02.632Z,1.00
2022-09-26T17:32:09.674Z,1.10
2022-09-26T17:34:14.020Z,1.02
2022-09-26T17:36:23.954Z,1.00
2022-09-26T17:38:25.292Z,1.20
2022-09-26T17:40:28.213Z,1.25
2022-09-26T17:42:30.295Z,1.20
2022-09-26T17:44:32.742Z,1.10
2022-09-26T17:46:37.327Z,0.80
2022-09-26T17:48:40.228Z,0.80
2022-09-26T17:50:42.708Z,0.98
2022-09-26T17:52:44.004Z,0.77
2022-09-26T17:54:46.937Z,0.70
2022-09-26T17:56:48.424Z,0.75
2022-09-26T17:58:50.653Z,1.00
2022-09-26T18:00:52.025Z,0.90
2022-09-26T18:02:55.661Z,0.85
2022-09-26T18:04:59.155Z,0.82
2022-09-26T18:07:01.960Z,0.90
2022-09-26T18:09:07.467Z,1.15
2022-09-26T18:11:14.875Z,1.00
2022-09-26T18:13:20.216Z,1.20
2022-09-26T18:15:21.731Z,1.10
2022-09-26T18:17:23.171Z,1.20
2022-09-26T18:19:24.597Z,1.17
2022-09-26T18:21:26.332Z,0.98
2022-09-26T18:23:29.888Z,1.00
2022-09-26T18:25:32.566Z,1.10
2022-09-26T18:27:36.825Z,1.00
2022-09-26T18:29:39.954Z,1.08
2022-09-26T18:31:42.992Z,1.17
2022-09-26T18:33:44.464Z,1.15
2022-09-26T18:35:45.935Z,1.10
2022-09-26T18:37:47.322Z,1.05
2022-09-26T18:39:54.371Z,1.17
2022-09-26T18:42:00.634Z,1.10
2022-09-26T18:44:02.940Z,1.30
2022-09-26T18:46:04.953Z,1.08
2022-09-26T18:48:08.047Z,1.30
2022-09-26T18:50:18.079Z,1.38
2022-09-26T18:52:19.473Z,1.27
2022-09-26T18:54:20.895Z,1.40
2022-09-26T18:56:40.968Z,1.17
2022-09-26T18:58:42.307Z,1.20
2022-09-26T19:00:44.305Z,1.10
2022-09-26T19:02:45.793Z,1.30
2022-09-26T19:04:47.374Z,1.83
2022-09-26T19:06:56.198Z,1.33
2022-09-26T19:09:02.534Z,2.08
2022-09-26T19:11:10.960Z,1.67
2022-09-26T19:13:12.248Z,1.13
2022-09-26T19:15:17.150Z,1.20
2022-09-26T19:17:18.584Z,1.42
2022-09-26T19:19:20.292Z,1.20
2022-09-26T19:21:32.753Z,1.20
2022-09-26T19:23:35.729Z,1.50
2022-09-26T19:25:37.087Z,1.90
2022-09-26T19:27:42.175Z,1.90
2022-09-26T19:29:56.623Z,2.72
2022-09-26T19:31:58.289Z,2.03
2022-09-26T19:33:59.843Z,2.55
2022-09-26T19:36:01.380Z,3.25
2022-09-26T19:38:04.428Z,2.08
2022-09-26T19:40:24.527Z,3.13
2022-09-26T19:42:26.437Z,1.40
2022-09-26T19:44:27.766Z,2.00
2022-09-26T19:46:30.430Z,1.63
2022-09-26T19:48:38.483Z,1.40
2022-09-26T19:50:41.372Z,1.55
2022-09-26T19:52:42.804Z,1.30
2022-09-26T19:54:45.272Z,1.08
2022-09-26T19:56:46.881Z,1.40
2022-09-26T19:58:50.299Z,1.23
2022-09-26T20:00:52.863Z,1.20
2022-09-26T20:02:54.315Z,1.40
2022-09-26T20:04:55.754Z,1.40
2022-09-26T20:06:58.403Z,1.10
2022-09-26T20:09:02.106Z,1.30
2022-09-26T20:11:03.896Z,1.67
2022-09-26T20:13:05.184Z,1.50
2022-09-26T20:15:06.645Z,1.40
2022-09-26T20:17:18.082Z,2.08
2022-09-26T20:19:30.615Z,1.50
2022-09-26T20:21:32.307Z,2.35
2022-09-26T20:23:33.604Z,1.90
2022-09-26T20:25:36.652Z,1.70
2022-09-26T20:27:38.395Z,1.02
2022-09-26T20:30:00.340Z,3.45
2022-09-26T20:32:05.765Z,1.65
2022-09-26T20:34:07.241Z,1.92
2022-09-26T20:36:10.080Z,1.90
2022-09-26T20:38:25.167Z,1.25
2022-09-26T20:40:27.072Z,1.20
2022-09-26T20:42:33.116Z,1.65
2022-09-26T20:44:35.928Z,1.20
2022-09-26T20:46:38.837Z,1.20
2022-09-26T20:48:41.955Z,1.55
2022-09-26T20:50:43.745Z,2.03
2022-09-26T20:52:45.290Z,1.73
2022-09-26T20:54:46.580Z,2.30
2022-09-26T20:56:48.851Z,3.20
2022-09-26T20:58:50.190Z,6.20
2022-09-26T21:00:53.154Z,2.72
2022-09-26T21:02:56.294Z,3.00
2022-09-26T21:05:00.291Z,2.92
2022-09-26T21:07:01.880Z,2.78
2022-09-26T21:09:03.440Z,3.78
2022-09-26T21:11:04.799Z,6.30
2022-09-26T21:13:06.140Z,3.72
2022-09-26T21:15:08.292Z,7.68
2022-09-26T21:17:17.819Z,5.28
2022-09-26T21:19:20.903Z,2.63
2022-09-26T21:21:29.470Z,3.70
2022-09-26T21:23:31.050Z,5.05
2022-09-26T21:25:32.414Z,4.35
2022-09-26T21:27:33.711Z,1.30
2022-09-26T21:29:35.006Z,2.83
2022-09-26T21:31:36.289Z,2.17
2022-09-26T21:33:38.299Z,2.20
2022-09-26T21:35:40.725Z,2.75
2022-09-26T21:37:43.136Z,2.00
2022-09-26T21:39:44.471Z,2.60
2022-09-26T21:41:50.865Z,2.90
2022-09-26T21:43:55.501Z,3.22
2022-09-26T21:45:56.939Z,3.17
2022-09-26T21:47:58.309Z,1.83
2022-09-26T21:50:00.183Z,1.75
2022-09-26T21:52:04.227Z,1.90
2022-09-26T21:54:08.351Z,1.83
2022-09-26T21:56:14.170Z,9.57
2022-09-26T21:58:17.999Z,4.43
2022-09-26T22:00:19.352Z,2.45
2022-09-26T22:02:20.817Z,1.98
2022-09-26T22:04:22.445Z,3.03
2022-09-26T22:06:23.769Z,2.55
2022-09-26T22:08:25.041Z,0.85
2022-09-26T22:10:27.924Z,1.38
2022-09-26T22:12:29.205Z,2.00
2022-09-26T22:14:30.493Z,1.45
2022-09-26T22:16:32.352Z,1.05
2022-09-26T22:18:34.688Z,1.40
2022-09-26T22:20:35.964Z,1.02
2022-09-26T22:22:37.757Z,0.90
2022-09-26T22:24:39.109Z,1.30
2022-09-26T22:26:40.389Z,2.78
2022-09-26T22:28:41.739Z,0.82
2022-09-26T22:30:43.325Z,1.10
2022-09-26T22:32:44.753Z,1.15
2022-09-26T22:34:46.039Z,1.40
2022-09-26T22:36:47.326Z,1.20
2022-09-26T22:38:49.283Z,0.90
2022-09-26T22:41:01.754Z,0.60
2022-09-26T22:43:03.128Z,1.02
2022-09-26T22:45:04.657Z,0.93
2022-09-26T22:47:06.137Z,1.30
2022-09-26T22:49:08.999Z,1.02
2022-09-26T22:51:11.607Z,0.85
2022-09-26T22:53:12.949Z,1.98
2022-09-26T22:55:15.416Z,0.80
2022-09-26T22:57:17.548Z,1.00
2022-09-26T22:59:20.082Z,0.80
2022-09-26T23:01:25.549Z,0.90
2022-09-26T23:03:26.908Z,0.70
2022-09-26T23:05:28.376Z,0.70
2022-09-26T23:07:30.183Z,0.57
2022-09-26T23:09:31.453Z,0.65
2022-09-26T23:11:32.765Z,0.73
2022-09-26T23:13:35.440Z,0.40
2022-09-26T23:15:36.722Z,0.38
2022-09-26T23:17:38.592Z,0.63
2022-09-26T23:19:40.125Z,0.30
2022-09-26T23:21:42.267Z,0.52
2022-09-26T23:23:44.928Z,1.10
2022-09-26T23:25:47.340Z,0.68
2022-09-26T23:27:49.371Z,0.40
2022-09-26T23:29:50.684Z,0.60
2022-09-26T23:31:52.166Z,1.70
2022-09-26T23:33:53.542Z,0.82
2022-09-26T23:35:58.123Z,0.60
2022-09-26T23:38:00.385Z,0.40
2022-09-26T23:40:01.687Z,0.20
2022-09-26T23:42:03.272Z,0.68
2022-09-26T23:44:04.627Z,0.38
2022-09-26T23:46:06.538Z,0.30
2022-09-26T23:48:07.856Z,0.60
2022-09-26T23:50:09.255Z,0.50
2022-09-26T23:52:10.619Z,0.50
2022-09-26T23:54:12.273Z,0.43
2022-09-26T23:56:14.228Z,0.30
2022-09-26T23:58:15.748Z,0.40
